Time;durP1;ratioP1;P1;durP2;ratioP2;P2;SDS_P1;SDS_P2;PMS_P1;PMS_P2;Temp;Humidity;BMP_temperature;BMP_pressure;BME280_temperature;BME280_humidity;BME280_pressure;Samples;Min_cycle;Max_cycle;Signal;HPM_P1;HPM_P2
2021/03/25 00:00:54;;;;;;;;;;;6.20;99.90;;;;;;5095636;28;19931;-66
2021/03/25 00:03:21;;;;;;;;;;;6.20;99.90;;;;;;5095619;28;19925;-68
2021/03/25 00:05:48;;;;;;;;;;;6.10;99.90;;;;;;5095444;28;20380;-68
2021/03/25 00:08:16;;;;;;;;;;;6.10;99.90;;;;;;5095278;28;19924;-68
2021/03/25 00:10:42;;;;;;;;;;;6.10;99.90;;;;;;5095423;28;19924;-67
2021/03/25 00:13:08;;;;;;;;;;;6.00;99.90;;;;;;5095522;28;20335;-67
2021/03/25 00:15:35;;;;;;;;;;;5.90;99.90;;;;;;5095343;28;19924;-66
2021/03/25 00:18:01;;;;;;;;;;;5.90;99.90;;;;;;5094969;28;19982;-68
2021/03/25 00:20:27;;;;;;;;;;;5.80;99.90;;;;;;5095302;28;19924;-67
2021/03/25 00:22:54;;;;;;;;;;;5.80;99.90;;;;;;5095088;28;20376;-68
2021/03/25 00:25:21;;;;;;;;;;;5.80;99.90;;;;;;5095147;28;19924;-66
2021/03/25 00:27:47;;;;;;;;;;;5.70;99.90;;;;;;5094984;28;19935;-68
2021/03/25 00:30:14;;;;;;;;;;;5.80;99.90;;;;;;5094965;28;19924;-67
2021/03/25 00:32:41;;;;;;;;;;;5.70;99.90;;;;;;5095360;28;19924;-67
2021/03/25 00:35:09;;;;;;;;;;;5.70;99.90;;;;;;5095247;28;19931;-66
2021/03/25 00:37:35;;;;;;;;;;;5.60;99.90;;;;;;5094390;28;19977;-68
2021/03/25 00:40:03;;;;;;;;;;;5.60;99.90;;;;;;5094716;28;19924;-70
2021/03/25 00:42:29;;;;;;;;;;;5.60;99.90;;;;;;5094933;28;19928;-67
2021/03/25 00:44:55;;;;;;;;;;;5.60;99.90;;;;;;5094993;28;19923;-66
2021/03/25 00:47:21;;;;;;;;;;;5.60;99.90;;;;;;5094399;28;19924;-66
2021/03/25 00:49:47;;;;;;;;;;;5.50;99.90;;;;;;5094766;28;19970;-67
2021/03/25 00:52:13;;;;;;;;;;;5.50;99.90;;;;;;5094555;28;19928;-67
2021/03/25 00:54:39;;;;;;;;;;;5.50;99.90;;;;;;5094541;28;19935;-66
2021/03/25 00:57:07;;;;;;;;;;;5.50;99.90;;;;;;5094430;28;19928;-66
2021/03/25 00:59:33;;;;;;;;;;;5.50;99.90;;;;;;5094608;28;19971;-66
2021/03/25 01:01:59;;;;;;;;;;;5.40;99.90;;;;;;5094267;28;19928;-66
2021/03/25 01:04:25;;;;;;;;;;;5.40;99.90;;;;;;5094304;28;19924;-66
2021/03/25 01:06:51;;;;;;;;;;;5.40;99.90;;;;;;5094128;28;19924;-66
2021/03/25 01:09:19;;;;;;;;;;;5.40;99.90;;;;;;5094123;28;19927;-67
2021/03/25 01:11:45;;;;;;;;;;;5.40;99.90;;;;;;5094185;28;20381;-67
2021/03/25 01:14:12;;;;;;;;;;;5.30;99.90;;;;;;5094380;28;19924;-67
2021/03/25 01:16:40;;;;;;;;;;;5.30;99.90;;;;;;5094175;28;20049;-66
2021/03/25 01:19:08;;;;;;;;;;;5.30;99.90;;;;;;5093937;28;19928;-66
2021/03/25 01:21:34;;;;;;;;;;;5.30;99.90;;;;;;5093807;28;19932;-68
2021/03/25 01:24:00;;;;;;;;;;;5.40;99.90;;;;;;5094011;28;19928;-66
2021/03/25 01:26:26;;;;;;;;;;;5.40;99.90;;;;;;5094150;28;19932;-66
2021/03/25 01:28:52;;;;;;;;;;;5.40;99.90;;;;;;5093983;28;20052;-67
2021/03/25 01:31:19;;;;;;;;;;;5.50;99.90;;;;;;5094054;28;19989;-67
2021/03/25 01:33:45;;;;;;;;;;;5.50;99.90;;;;;;5093782;28;20411;-67
2021/03/25 01:36:11;;;;;;;;;;;5.50;99.90;;;;;;5093867;28;20273;-67
2021/03/25 01:38:37;;;;;;;;;;;5.50;99.90;;;;;;5093318;28;19924;-67
2021/03/25 01:41:04;;;;;;;;;;;5.50;99.90;;;;;;5093809;28;19924;-68
2021/03/25 01:43:31;;;;;;;;;;;5.50;99.90;;;;;;5093656;28;19924;-66
2021/03/25 01:46:02;;;;;;;;;;;5.50;99.90;;;;;;5093708;28;19924;-68
2021/03/25 01:48:30;;;;;;;;;;;5.50;99.90;;;;;;5093267;28;20631;-67
2021/03/25 01:50:59;;;;;;;;;;;5.50;99.90;;;;;;5093263;28;19924;-66
2021/03/25 01:53:33;;;;;;;;;;;5.60;99.90;;;;;;5093688;28;20284;-66
2021/03/25 01:56:02;;;;;;;;;;;5.60;99.90;;;;;;5093411;28;19924;-67
2021/03/25 01:58:52;;;;;;;;;;;5.60;99.90;;;;;;5092989;28;20525;-66
2021/03/25 02:01:22;;;;;;;;;;;5.60;99.90;;;;;;5077060;28;19928;-66
2021/03/25 02:04:08;;;;;;;;;;;5.60;99.90;;;;;;5093349;28;20393;-66
2021/03/25 02:06:37;;;;;;;;;;;5.60;99.90;;;;;;5093262;28;19924;-67
2021/03/25 02:09:07;;;;;;;;;;;5.50;99.90;;;;;;5092978;28;19928;-66
2021/03/25 02:11:37;;;;;;;;;;;5.50;99.90;;;;;;5092855;28;20470;-68
2021/03/25 02:14:06;;;;;;;;;;;5.50;99.90;;;;;;5092935;28;20437;-66
2021/03/25 02:16:37;;;;;;;;;;;5.50;99.90;;;;;;5093073;28;19931;-67
2021/03/25 02:19:08;;;;;;;;;;;5.50;99.90;;;;;;5093067;28;20273;-66
2021/03/25 02:21:52;;;;;;;;;;;5.50;99.90;;;;;;5092998;28;20012;-67
2021/03/25 02:24:30;;;;;;;;;;;5.50;99.90;;;;;;5092564;28;19924;-67
2021/03/25 02:27:01;;;;;;;;;;;5.60;99.90;;;;;;5092692;28;19924;-66
2021/03/25 02:29:37;;;;;;;;;;;5.60;99.90;;;;;;5092972;28;19924;-66
2021/03/25 02:32:06;;;;;;;;;;;5.70;99.90;;;;;;5092795;28;20351;-67
2021/03/25 02:34:35;;;;;;;;;;;5.70;99.90;;;;;;5092541;28;20269;-67
2021/03/25 02:37:04;;;;;;;;;;;5.70;99.90;;;;;;5092498;28;19969;-67
2021/03/25 02:39:34;;;;;;;;;;;5.70;99.90;;;;;;5092836;28;19924;-68
2021/03/25 02:42:02;;;;;;;;;;;5.80;99.90;;;;;;5092547;28;19987;-66
2021/03/25 02:44:30;;;;;;;;;;;5.80;99.90;;;;;;5092786;28;19924;-67
2021/03/25 02:46:58;;;;;;;;;;;5.80;99.90;;;;;;5092226;28;19925;-66
2021/03/25 02:49:26;;;;;;;;;;;5.80;99.90;;;;;;5092480;28;20469;-68
2021/03/25 02:51:57;;;;;;;;;;;5.90;99.90;;;;;;5093103;28;19924;-68
2021/03/25 02:54:23;;;;;;;;;;;5.90;99.90;;;;;;5092769;28;19927;-67
2021/03/25 02:56:49;;;;;;;;;;;6.00;99.90;;;;;;5092613;28;20285;-67
2021/03/25 02:59:17;;;;;;;;;;;6.00;99.90;;;;;;5092297;28;19931;-66
2021/03/25 03:01:45;;;;;;;;;;;6.00;99.90;;;;;;5092313;28;19924;-67
2021/03/25 03:04:16;;;;;;;;;;;6.00;99.90;;;;;;5092453;28;20417;-67
2021/03/25 03:06:45;;;;;;;;;;;6.00;99.90;;;;;;5092457;28;19924;-66
2021/03/25 03:09:13;;;;;;;;;;;6.00;99.90;;;;;;5092183;28;19950;-67
2021/03/25 03:11:41;;;;;;;;;;;6.00;99.90;;;;;;5092706;28;20327;-66
2021/03/25 03:14:12;;;;;;;;;;;6.00;99.90;;;;;;5096828;28;20409;-68
2021/03/25 03:16:42;;;;;;;;;;;6.00;99.90;;;;;;5096650;28;19931;-66
2021/03/25 03:19:11;;;;;;;;;;;6.10;99.90;;;;;;5096340;28;19977;-67
2021/03/25 03:21:39;;;;;;;;;;;6.10;99.90;;;;;;5096234;28;19924;-66
2021/03/25 03:24:06;;;;;;;;;;;6.10;99.90;;;;;;5096420;28;19928;-66
2021/03/25 03:26:35;;;;;;;;;;;6.20;99.90;;;;;;5096312;28;19978;-67
2021/03/25 03:29:04;;;;;;;;;;;6.20;99.90;;;;;;5095733;28;19986;-66
2021/03/25 03:31:35;;;;;;;;;;;6.10;99.90;;;;;;5096393;28;19993;-67
2021/03/25 03:34:03;;;;;;;;;;;6.10;99.90;;;;;;5096199;28;19924;-66
2021/03/25 03:36:29;;;;;;;;;;;6.00;99.90;;;;;;5096106;28;19935;-66
2021/03/25 03:39:00;;;;;;;;;;;6.00;99.90;;;;;;5095510;28;19924;-66
2021/03/25 03:41:28;;;;;;;;;;;5.90;99.90;;;;;;5095790;28;19974;-67
2021/03/25 03:43:55;;;;;;;;;;;5.90;99.90;;;;;;5096153;28;19924;-67
2021/03/25 03:46:25;;;;;;;;;;;5.90;99.90;;;;;;5095739;28;20380;-66
2021/03/25 03:48:54;;;;;;;;;;;5.90;99.90;;;;;;5095627;28;19924;-66
2021/03/25 03:51:22;;;;;;;;;;;5.90;99.90;;;;;;5095664;28;20427;-66
2021/03/25 03:53:48;;;;;;;;;;;5.90;99.90;;;;;;5095916;28;20553;-67
2021/03/25 03:56:16;;;;;;;;;;;5.90;99.90;;;;;;5095568;28;20396;-67
2021/03/25 03:58:45;;;;;;;;;;;5.90;99.90;;;;;;5095876;28;19928;-66
2021/03/25 04:01:16;;;;;;;;;;;5.90;99.90;;;;;;5096029;28;19924;-66
2021/03/25 04:03:44;;;;;;;;;;;5.90;99.90;;;;;;5096360;28;19924;-67
2021/03/25 04:06:12;;;;;;;;;;;6.00;99.90;;;;;;5095583;28;20001;-67
2021/03/25 04:08:40;;;;;;;;;;;5.90;99.90;;;;;;5095574;28;20297;-66
2021/03/25 04:11:13;;;;;;;;;;;5.90;99.90;;;;;;5095587;28;19931;-67
2021/03/25 04:13:40;;;;;;;;;;;5.90;99.90;;;;;;5095262;28;19979;-66
2021/03/25 04:16:07;;;;;;;;;;;6.00;99.90;;;;;;5095367;28;19924;-67
2021/03/25 04:18:37;;;;;;;;;;;6.00;99.90;;;;;;5095010;28;19924;-66
2021/03/25 04:21:06;;;;;;;;;;;6.00;99.90;;;;;;5095002;28;19928;-66
2021/03/25 04:23:33;;;;;;;;;;;5.90;99.90;;;;;;5095060;28;19951;-66
2021/03/25 04:26:03;;;;;;;;;;;5.90;99.90;;;;;;5095132;28;19924;-67
2021/03/25 04:28:31;;;;;;;;;;;5.80;99.90;;;;;;5094916;28;20304;-66
2021/03/25 04:30:57;;;;;;;;;;;5.80;99.90;;;;;;5094881;28;20011;-66
2021/03/25 04:33:25;;;;;;;;;;;5.90;99.90;;;;;;5094963;28;20283;-67
2021/03/25 04:35:52;;;;;;;;;;;5.90;99.90;;;;;;5095105;28;19924;-66
2021/03/25 04:38:20;;;;;;;;;;;5.90;99.90;;;;;;5094693;28;19973;-66
2021/03/25 04:40:47;;;;;;;;;;;5.80;99.90;;;;;;5094983;28;19924;-66
2021/03/25 04:43:16;;;;;;;;;;;5.90;99.90;;;;;;5094927;28;20056;-66
2021/03/25 04:45:46;;;;;;;;;;;5.90;99.90;;;;;;5094714;28;19928;-66
2021/03/25 04:48:13;;;;;;;;;;;5.80;99.90;;;;;;5094259;28;19977;-66
2021/03/25 04:50:42;;;;;;;;;;;5.70;99.90;;;;;;5094837;28;19924;-67
2021/03/25 04:53:20;;;;;;;;;;;5.70;99.90;;;;;;5094503;28;19935;-67
2021/03/25 04:55:46;;;;;;;;;;;5.70;99.90;;;;;;5094661;28;20423;-67
2021/03/25 04:58:14;;;;;;;;;;;5.70;99.90;;;;;;5094226;28;19931;-67
2021/03/25 05:00:40;;;;;;;;;;;5.70;99.90;;;;;;5094445;28;19935;-66
2021/03/25 05:03:08;;;;;;;;;;;5.70;99.90;;;;;;5094809;28;19928;-66
2021/03/25 05:05:34;;;;;;;;;;;5.60;99.90;;;;;;5094362;28;19965;-67
2021/03/25 05:08:03;;;;;;;;;;;5.60;99.90;;;;;;5094660;28;19924;-67
2021/03/25 05:10:34;;;;;;;;;;;5.70;99.90;;;;;;5095316;28;19930;-66
2021/03/25 05:13:00;;;;;;;;;;;5.60;99.90;;;;;;5094391;28;19931;-67
2021/03/25 05:15:27;;;;;;;;;;;5.60;99.90;;;;;;5094470;28;20312;-67
2021/03/25 05:17:56;;;;;;;;;;;5.60;99.90;;;;;;5090308;28;19925;-66
2021/03/25 05:20:23;;;;;;;;;;;5.60;99.90;;;;;;5093979;28;19924;-66
2021/03/25 05:22:55;;;;;;;;;;;5.60;99.90;;;;;;5093913;28;19951;-66
2021/03/25 05:25:26;;;;;;;;;;;5.60;99.90;;;;;;5093766;28;19924;-66
2021/03/25 05:27:54;;;;;;;;;;;5.60;99.90;;;;;;5093398;28;19924;-67
2021/03/25 05:30:22;;;;;;;;;;;5.50;99.90;;;;;;5093765;28;20564;-66
2021/03/25 05:32:50;;;;;;;;;;;5.50;99.90;;;;;;5094041;28;19924;-66
2021/03/25 05:35:18;;;;;;;;;;;5.50;99.90;;;;;;5093115;28;19970;-66
2021/03/25 05:37:45;;;;;;;;;;;5.50;99.90;;;;;;5093159;28;20381;-67
2021/03/25 05:40:13;;;;;;;;;;;5.40;99.90;;;;;;5093513;28;19931;-69
2021/03/25 05:42:43;;;;;;;;;;;5.40;99.90;;;;;;5092922;28;20308;-67
2021/03/25 05:45:22;;;;;;;;;;;5.40;99.90;;;;;;5093182;28;20494;-67
2021/03/25 05:48:06;;;;;;;;;;;5.50;99.90;;;;;;5093075;28;19924;-67
2021/03/25 05:50:37;;;;;;;;;;;5.50;99.90;;;;;;5093339;28;19928;-67
2021/03/25 05:53:08;;;;;;;;;;;5.50;99.90;;;;;;5093412;28;19924;-67
2021/03/25 05:55:51;;;;;;;;;;;5.50;99.90;;;;;;5093415;28;19924;-67
2021/03/25 05:58:28;;;;;;;;;;;5.60;99.90;;;;;;5079250;28;20335;-65
2021/03/25 06:00:58;;;;;;;;;;;5.60;99.90;;;;;;5093187;28;19947;-66
2021/03/25 06:03:26;;;;;;;;;;;5.60;99.90;;;;;;5092845;28;19931;-66
2021/03/25 06:05:53;;;;;;;;;;;5.60;99.90;;;;;;5093214;28;19924;-66
2021/03/25 06:08:29;;;;;;;;;;;5.70;99.90;;;;;;5092887;28;19928;-66
2021/03/25 06:11:02;;;;;;;;;;;5.70;99.90;;;;;;5093135;28;19931;-66
2021/03/25 06:13:34;;;;;;;;;;;5.80;99.90;;;;;;5092790;28;19928;-66
2021/03/25 06:16:11;;;;;;;;;;;5.90;99.90;;;;;;5093172;28;19971;-66
2021/03/25 06:19:01;;;;;;;;;;;6.00;99.90;;;;;;5093090;28;19931;-66
2021/03/25 06:21:35;;;;;;;;;;;6.10;99.90;;;;;;5072862;28;19924;-66
2021/03/25 06:24:17;;;;;;;;;;;6.20;99.90;;;;;;5092630;28;19981;-68
2021/03/25 06:26:48;;;;;;;;;;;6.30;99.90;;;;;;5086267;28;21336;-68
2021/03/25 06:29:17;;;;;;;;;;;6.40;99.90;;;;;;5092538;28;19924;-67
2021/03/25 06:31:52;;;;;;;;;;;6.40;99.90;;;;;;5093238;28;19924;-69
2021/03/25 06:34:21;;;;;;;;;;;6.50;99.90;;;;;;5091957;28;19981;-68
2021/03/25 06:36:50;;;;;;;;;;;6.60;99.90;;;;;;5091939;28;19924;-65
2021/03/25 06:39:22;;;;;;;;;;;6.70;99.90;;;;;;5092173;28;20019;-63
2021/03/25 06:41:50;;;;;;;;;;;6.80;99.90;;;;;;5092146;28;19932;-63
2021/03/25 06:44:20;;;;;;;;;;;6.90;99.90;;;;;;5092125;28;19931;-64
2021/03/25 06:46:48;;;;;;;;;;;7.00;99.90;;;;;;5091544;28;19928;-64
2021/03/25 06:49:19;;;;;;;;;;;7.10;99.90;;;;;;5091901;28;20613;-65
2021/03/25 06:51:45;;;;;;;;;;;7.20;99.90;;;;;;5092392;28;20305;-64
2021/03/25 06:54:12;;;;;;;;;;;7.40;99.90;;;;;;5091831;28;19931;-66
2021/03/25 06:56:39;;;;;;;;;;;7.50;99.90;;;;;;5091638;28;19950;-65
2021/03/25 06:59:08;;;;;;;;;;;7.60;99.90;;;;;;5091590;28;19924;-65
2021/03/25 07:01:37;;;;;;;;;;;7.70;99.90;;;;;;5091908;28;19939;-64
2021/03/25 07:04:05;;;;;;;;;;;7.90;99.90;;;;;;5092030;28;19924;-67
2021/03/25 07:06:33;;;;;;;;;;;8.00;99.90;;;;;;5091241;28;19928;-67
2021/03/25 07:08:59;;;;;;;;;;;8.10;99.90;;;;;;5091662;28;19947;-67
2021/03/25 07:11:27;;;;;;;;;;;8.10;99.90;;;;;;5091795;28;19924;-67
2021/03/25 07:13:58;;;;;;;;;;;8.20;99.90;;;;;;5091626;28;19924;-67
2021/03/25 07:16:24;;;;;;;;;;;8.20;99.90;;;;;;5091673;28;19924;-68
2021/03/25 07:18:56;;;;;;;;;;;8.40;99.90;;;;;;5091077;28;19928;-67
2021/03/25 07:21:27;;;;;;;;;;;8.50;99.90;;;;;;5091863;28;19924;-67
2021/03/25 07:23:53;;;;;;;;;;;8.70;99.90;;;;;;5091916;28;20479;-67
2021/03/25 07:26:21;;;;;;;;;;;8.80;99.90;;;;;;5091761;28;19935;-67
2021/03/25 07:29:05;;;;;;;;;;;9.00;99.90;;;;;;5092421;28;19928;-67
2021/03/25 07:31:33;;;;;;;;;;;9.20;99.90;;;;;;5092238;28;19924;-69
2021/03/25 07:34:00;;;;;;;;;;;9.30;99.90;;;;;;5097119;28;19981;-68
2021/03/25 07:36:26;;;;;;;;;;;9.50;99.90;;;;;;5091418;28;19924;-68
2021/03/25 07:38:59;;;;;;;;;;;9.50;99.90;;;;;;5091703;28;20404;-68
2021/03/25 07:41:26;;;;;;;;;;;9.50;99.90;;;;;;5091980;28;20431;-69
2021/03/25 07:43:54;;;;;;;;;;;9.90;99.90;;;;;;5091928;28;19924;-68
2021/03/25 07:46:21;;;;;;;;;;;10.20;99.90;;;;;;5092194;28;19924;-69
2021/03/25 07:49:13;;;;;;;;;;;10.40;99.90;;;;;;5093225;28;19970;-69
2021/03/25 07:51:44;;;;;;;;;;;10.30;99.90;;;;;;5095439;28;19963;-67
2021/03/25 07:54:11;;;;;;;;;;;10.30;99.90;;;;;;5095412;28;20410;-67
2021/03/25 07:56:51;;;;;;;;;;;10.00;99.90;;;;;;5094797;28;20489;-68
2021/03/25 07:59:26;;;;;;;;;;;10.00;99.90;;;;;;5096110;28;19939;-66
2021/03/25 08:01:52;;;;;;;;;;;9.30;99.90;;;;;;5095997;28;20017;-66
2021/03/25 08:04:24;;;;;;;;;;;9.20;99.90;;;;;;5095908;28;19942;-65
2021/03/25 08:06:57;;;;;;;;;;;9.20;99.90;;;;;;5095255;28;19925;-65
2021/03/25 08:09:23;;;;;;;;;;;9.50;99.90;;;;;;5095808;28;19931;-65
2021/03/25 08:11:50;;;;;;;;;;;9.80;99.90;;;;;;5095424;28;19924;-66
2021/03/25 08:14:19;;;;;;;;;;;10.00;99.90;;;;;;5095533;28;19944;-66
2021/03/25 08:16:47;;;;;;;;;;;10.10;99.90;;;;;;5094639;28;19924;-65
2021/03/25 08:19:28;;;;;;;;;;;10.20;99.90;;;;;;5094734;28;20403;-67
2021/03/25 08:22:02;;;;;;;;;;;10.10;99.90;;;;;;5095877;28;19924;-67
2021/03/25 08:24:43;;;;;;;;;;;10.30;99.90;;;;;;5095857;28;20399;-67
2021/03/25 08:27:17;;;;;;;;;;;10.30;99.90;;;;;;5065032;28;19928;-64
2021/03/25 08:29:49;;;;;;;;;;;10.30;99.90;;;;;;5097937;28;19947;-66
2021/03/25 08:32:19;;;;;;;;;;;10.30;99.90;;;;;;5095122;28;19924;-66
2021/03/25 08:34:59;;;;;;;;;;;10.30;99.90;;;;;;5094454;28;19935;-67
2021/03/25 08:37:41;;;;;;;;;;;10.30;99.90;;;;;;5094546;28;19977;-68
2021/03/25 08:40:13;;;;;;;;;;;10.10;99.90;;;;;;5094762;28;19986;-66
2021/03/25 08:42:40;;;;;;;;;;;10.10;99.90;;;;;;5094228;28;19924;-66
2021/03/25 08:45:13;;;;;;;;;;;9.90;99.90;;;;;;5094583;28;19931;-66
2021/03/25 08:47:42;;;;;;;;;;;10.00;99.90;;;;;;5093683;28;20221;-66
2021/03/25 08:50:20;;;;;;;;;;;10.10;99.90;;;;;;5094522;28;19924;-67
2021/03/25 08:52:47;;;;;;;;;;;10.10;99.90;;;;;;5094280;28;19947;-68
2021/03/25 08:55:19;;;;;;;;;;;10.10;99.90;;;;;;5094405;28;19938;-68
2021/03/25 08:57:48;;;;;;;;;;;10.30;99.90;;;;;;5093817;28;20296;-66
2021/03/25 09:00:15;;;;;;;;;;;10.60;99.90;;;;;;5094232;28;19924;-68
2021/03/25 09:02:44;;;;;;;;;;;10.80;99.90;;;;;;5094185;28;19928;-68
2021/03/25 09:05:18;;;;;;;;;;;10.80;99.90;;;;;;5094182;28;19925;-66
2021/03/25 09:07:47;;;;;;;;;;;10.80;99.90;;;;;;5093681;28;20419;-65
2021/03/25 09:10:19;;;;;;;;;;;10.90;99.90;;;;;;5092564;28;19931;-68
2021/03/25 09:12:45;;;;;;;;;;;11.10;99.90;;;;;;5094348;28;20005;-68
2021/03/25 09:15:11;;;;;;;;;;;11.20;99.90;;;;;;5094022;28;19978;-66
2021/03/25 09:17:38;;;;;;;;;;;11.30;99.90;;;;;;5092898;28;19924;-66
2021/03/25 09:20:09;;;;;;;;;;;11.40;99.90;;;;;;5093768;28;19924;-66
2021/03/25 09:22:40;;;;;;;;;;;11.60;99.90;;;;;;5093511;28;19928;-66
2021/03/25 09:25:15;;;;;;;;;;;11.70;99.90;;;;;;5093816;28;19928;-68
2021/03/25 09:27:55;;;;;;;;;;;11.80;99.90;;;;;;5093200;28;19931;-65
2021/03/25 09:30:28;;;;;;;;;;;11.60;99.90;;;;;;5093531;28;19924;-64
2021/03/25 09:32:54;;;;;;;;;;;11.70;99.90;;;;;;5093471;28;19924;-65
2021/03/25 09:35:40;;;;;;;;;;;11.90;99.90;;;;;;5093250;28;19931;-64
2021/03/25 09:38:10;;;;;;;;;;;12.10;99.90;;;;;;5092747;28;19924;-68
2021/03/25 09:40:47;;;;;;;;;;;12.00;99.90;;;;;;5093018;28;20301;-68
2021/03/25 09:43:32;;;;;;;;;;;12.10;99.90;;;;;;5093358;28;20304;-67
2021/03/25 09:46:18;;;;;;;;;;;12.10;99.90;;;;;;5092866;28;19978;-66
2021/03/25 09:48:45;;;;;;;;;;;12.20;99.90;;;;;;5092704;28;19924;-66
2021/03/25 09:51:17;;;;;;;;;;;12.20;99.90;;;;;;5093105;28;19924;-68
2021/03/25 09:53:44;;;;;;;;;;;12.30;99.90;;;;;;5093163;28;20300;-66
2021/03/25 09:56:30;;;;;;;;;;;12.00;99.90;;;;;;5092761;28;19971;-70
2021/03/25 09:58:56;;;;;;;;;;;12.00;99.90;;;;;;5092757;28;20296;-66
2021/03/25 10:01:40;;;;;;;;;;;11.80;99.90;;;;;;5092799;28;19924;-66
2021/03/25 10:04:28;;;;;;;;;;;11.90;99.90;;;;;;5082418;28;19969;-66
2021/03/25 10:06:58;;;;;;;;;;;11.80;99.90;;;;;;5093031;28;19928;-63
2021/03/25 10:09:42;;;;;;;;;;;11.60;99.90;;;;;;5092423;28;19927;-66
2021/03/25 10:12:10;;;;;;;;;;;11.60;99.90;;;;;;5092795;28;20308;-64
2021/03/25 10:14:46;;;;;;;;;;;11.80;99.90;;;;;;5092666;28;19928;-66
2021/03/25 10:17:30;;;;;;;;;;;11.80;99.90;;;;;;5092325;28;19924;-67
2021/03/25 10:19:57;;;;;;;;;;;11.90;99.90;;;;;;5092658;28;19969;-66
2021/03/25 10:22:23;;;;;;;;;;;11.90;99.90;;;;;;5091976;28;19928;-68
2021/03/25 10:24:53;;;;;;;;;;;12.00;99.90;;;;;;5093044;28;19924;-67
2021/03/25 10:27:27;;;;;;;;;;;12.30;99.90;;;;;;5092461;28;19935;-68
2021/03/25 10:29:53;;;;;;;;;;;12.50;99.90;;;;;;5092352;28;19963;-67
2021/03/25 10:32:25;;;;;;;;;;;12.60;99.90;;;;;;5092795;28;19924;-65
2021/03/25 10:34:54;;;;;;;;;;;12.80;99.90;;;;;;5092387;28;19924;-65
2021/03/25 10:37:38;;;;;;;;;;;12.80;99.90;;;;;;5094122;28;19924;-68
2021/03/25 10:40:16;;;;;;;;;;;12.90;99.90;;;;;;5091874;28;19938;-66
2021/03/25 10:42:44;;;;;;;;;;;13.00;99.90;;;;;;5092406;28;20312;-68
2021/03/25 10:45:15;;;;;;;;;;;13.10;99.90;;;;;;5092704;28;19978;-67
2021/03/25 10:47:47;;;;;;;;;;;13.10;99.90;;;;;;5091694;28;20395;-65
2021/03/25 10:50:17;;;;;;;;;;;13.30;99.90;;;;;;5092114;28;20400;-65
2021/03/25 10:52:43;;;;;;;;;;;13.30;99.90;;;;;;5092107;28;19935;-65
2021/03/25 10:55:17;;;;;;;;;;;13.30;99.90;;;;;;5092041;28;19931;-65
2021/03/25 10:57:46;;;;;;;;;;;13.30;99.90;;;;;;5091480;28;19935;-66
2021/03/25 11:00:17;;;;;;;;;;;13.30;99.90;;;;;;5092080;28;19924;-67
2021/03/25 11:02:44;;;;;;;;;;;13.40;99.90;;;;;;5092064;28;20304;-66
2021/03/25 11:05:16;;;;;;;;;;;13.40;99.90;;;;;;5091721;28;19936;-66
2021/03/25 11:07:43;;;;;;;;;;;13.60;99.90;;;;;;5071283;28;19986;-67
2021/03/25 11:10:18;;;;;;;;;;;13.60;99.90;;;;;;5071710;28;19924;-65
2021/03/25 11:12:45;;;;;;;;;;;13.80;99.90;;;;;;5071676;28;19929;-65
2021/03/25 11:15:15;;;;;;;;;;;13.90;99.90;;;;;;5071290;28;19935;-67
2021/03/25 11:17:43;;;;;;;;;;;13.90;99.90;;;;;;5071136;28;19932;-66
2021/03/25 11:20:12;;;;;;;;;;;13.90;99.90;;;;;;5071434;28;19924;-65
2021/03/25 11:22:38;;;;;;;;;;;13.70;99.90;;;;;;5071224;28;19933;-65
2021/03/25 11:25:06;;;;;;;;;;;13.20;99.90;;;;;;5071657;28;19928;-64
2021/03/25 11:27:33;;;;;;;;;;;13.50;99.90;;;;;;5071642;28;19924;-64
2021/03/25 11:30:00;;;;;;;;;;;13.70;99.90;;;;;;5070912;28;19924;-64
2021/03/25 11:32:33;;;;;;;;;;;13.80;99.90;;;;;;5071601;28;19951;-66
2021/03/25 11:35:19;;;;;;;;;;;14.00;99.90;;;;;;5075510;28;20050;-66
2021/03/25 11:37:45;;;;;;;;;;;13.80;99.90;;;;;;5075013;28;19929;-65
2021/03/25 11:40:13;;;;;;;;;;;13.80;99.90;;;;;;5075016;28;19925;-66
2021/03/25 11:42:41;;;;;;;;;;;13.70;99.90;;;;;;5075470;28;19928;-67
2021/03/25 11:45:07;;;;;;;;;;;14.00;99.90;;;;;;5074997;28;19925;-67
2021/03/25 11:47:41;;;;;;;;;;;14.20;99.90;;;;;;5075291;28;19947;-70
2021/03/25 11:50:10;;;;;;;;;;;14.10;99.90;;;;;;5074929;28;19924;-66
2021/03/25 11:52:43;;;;;;;;;;;14.20;99.90;;;;;;5075025;28;19935;-66
2021/03/25 11:55:17;;;;;;;;;;;14.00;99.90;;;;;;5075400;28;19928;-66
2021/03/25 11:57:44;;;;;;;;;;;14.20;99.90;;;;;;5074739;28;19941;-68
2021/03/25 12:00:12;;;;;;;;;;;14.20;99.90;;;;;;5075253;28;19925;-65
2021/03/25 12:02:39;;;;;;;;;;;14.30;99.90;;;;;;5075102;28;19929;-65
2021/03/25 12:05:36;;;;;;;;;;;14.00;99.90;;;;;;5074553;28;19929;-64
2021/03/25 12:08:03;;;;;;;;;;;14.00;99.90;;;;;;5032009;28;19932;-65
2021/03/25 12:10:29;;;;;;;;;;;14.30;99.90;;;;;;5073960;28;19924;-67
2021/03/25 12:12:56;;;;;;;;;;;14.30;99.90;;;;;;5094209;28;19924;-66
2021/03/25 12:15:22;;;;;;;;;;;14.40;99.90;;;;;;5095093;28;19925;-71
2021/03/25 12:17:50;;;;;;;;;;;14.40;99.90;;;;;;5094472;28;19928;-70
2021/03/25 12:20:19;;;;;;;;;;;14.60;99.90;;;;;;5095022;28;19924;-67
2021/03/25 12:22:45;;;;;;;;;;;14.50;99.90;;;;;;5095567;28;19935;-65
2021/03/25 12:25:12;;;;;;;;;;;14.40;99.90;;;;;;5094949;28;19928;-65
2021/03/25 12:27:38;;;;;;;;;;;14.40;99.90;;;;;;5094174;28;19928;-66
2021/03/25 12:30:06;;;;;;;;;;;14.50;99.90;;;;;;5094822;28;19939;-66
2021/03/25 12:32:32;;;;;;;;;;;14.40;99.90;;;;;;5094313;28;19924;-66
2021/03/25 12:35:01;;;;;;;;;;;14.70;99.90;;;;;;5094935;28;19924;-68
2021/03/25 12:37:27;;;;;;;;;;;14.80;99.90;;;;;;5094587;28;19928;-68
2021/03/25 12:39:53;;;;;;;;;;;14.60;99.90;;;;;;5094253;28;19930;-65
2021/03/25 12:42:20;;;;;;;;;;;14.40;99.90;;;;;;5094253;28;19924;-66
2021/03/25 12:44:46;;;;;;;;;;;14.60;99.90;;;;;;5094298;28;19934;-65
2021/03/25 12:47:13;;;;;;;;;;;14.70;99.90;;;;;;5094062;28;19928;-65
2021/03/25 12:49:39;;;;;;;;;;;14.80;99.90;;;;;;5094243;28;20049;-67
2021/03/25 12:52:23;;;;;;;;;;;14.90;99.90;;;;;;5094493;28;19931;-67
2021/03/25 12:54:49;;;;;;;;;;;14.80;99.90;;;;;;5094325;28;19951;-69
2021/03/25 12:57:18;;;;;;;;;;;14.90;99.90;;;;;;5093823;28;20297;-69
2021/03/25 12:59:45;;;;;;;;;;;15.10;99.90;;;;;;5093510;28;19942;-68
2021/03/25 13:02:12;;;;;;;;;;;15.30;99.90;;;;;;5093612;28;19924;-64
2021/03/25 13:04:39;;;;;;;;;;;15.00;99.90;;;;;;5092984;28;19932;-65
2021/03/25 13:07:05;;;;;;;;;;;15.10;99.90;;;;;;5093287;28;20277;-65
2021/03/25 13:09:32;;;;;;;;;;;15.20;99.90;;;;;;5093334;28;19924;-64
2021/03/25 13:12:05;;;;;;;;;;;14.90;99.90;;;;;;5093738;28;19924;-65
2021/03/25 13:14:31;;;;;;;;;;;15.10;99.90;;;;;;5093564;28;19947;-65
2021/03/25 13:16:57;;;;;;;;;;;15.20;99.90;;;;;;5093115;28;20350;-65
2021/03/25 13:19:23;;;;;;;;;;;15.30;99.90;;;;;;5082443;28;20447;-69
2021/03/25 13:21:51;;;;;;;;;;;15.20;99.90;;;;;;5073372;28;19932;-67
2021/03/25 13:24:17;;;;;;;;;;;15.30;99.90;;;;;;5073444;28;19924;-65
2021/03/25 13:26:43;;;;;;;;;;;15.50;99.90;;;;;;5072332;28;19936;-66
2021/03/25 13:29:09;;;;;;;;;;;15.60;99.90;;;;;;5073036;28;19928;-66
2021/03/25 13:31:35;;;;;;;;;;;15.30;99.90;;;;;;5072960;28;20316;-65
2021/03/25 13:34:01;;;;;;;;;;;15.50;99.90;;;;;;5073146;28;19925;-65
2021/03/25 13:36:27;;;;;;;;;;;15.60;99.90;;;;;;5072896;28;19924;-67
2021/03/25 13:38:54;;;;;;;;;;;15.60;99.90;;;;;;5072227;28;20416;-68
2021/03/25 13:41:20;;;;;;;;;;;15.50;99.90;;;;;;5088566;28;20401;-67
2021/03/25 13:43:46;;;;;;;;;;;15.50;99.90;;;;;;5093137;28;19939;-65
2021/03/25 13:46:12;;;;;;;;;;;15.40;99.90;;;;;;5093157;28;19940;-65
2021/03/25 13:48:38;;;;;;;;;;;15.10;99.90;;;;;;5092558;28;20035;-66
2021/03/25 13:51:05;;;;;;;;;;;15.20;99.90;;;;;;5092603;28;20385;-65
2021/03/25 13:53:31;;;;;;;;;;;15.40;99.90;;;;;;5093012;28;19924;-65
2021/03/25 13:56:00;;;;;;;;;;;15.30;99.90;;;;;;5091838;28;19977;-66
2021/03/25 13:58:26;;;;;;;;;;;15.00;99.90;;;;;;5092662;28;20009;-66
2021/03/25 14:00:52;;;;;;;;;;;14.90;99.90;;;;;;5092653;28;20022;-70
2021/03/25 14:03:19;;;;;;;;;;;14.90;99.90;;;;;;5093077;28;19928;-67
2021/03/25 14:05:45;;;;;;;;;;;14.90;99.90;;;;;;5092841;28;19924;-66
2021/03/25 14:08:11;;;;;;;;;;;14.90;99.90;;;;;;5092275;28;19924;-71
2021/03/25 14:10:38;;;;;;;;;;;15.00;99.90;;;;;;5092215;28;19932;-70
2021/03/25 14:13:06;;;;;;;;;;;14.70;99.90;;;;;;5092478;28;19934;-69
2021/03/25 14:15:33;;;;;;;;;;;14.60;99.90;;;;;;5092836;28;19924;-68
2021/03/25 14:17:59;;;;;;;;;;;14.60;99.90;;;;;;5092200;28;19924;-67
2021/03/25 14:20:27;;;;;;;;;;;14.60;99.90;;;;;;5092429;28;19923;-69
2021/03/25 14:22:53;;;;;;;;;;;14.60;99.90;;;;;;5091891;28;19928;-69
2021/03/25 14:25:21;;;;;;;;;;;14.60;99.90;;;;;;5092389;28;20353;-68
2021/03/25 14:27:47;;;;;;;;;;;14.50;99.90;;;;;;5091670;28;19924;-65
2021/03/25 14:30:18;;;;;;;;;;;14.60;99.90;;;;;;5091109;28;19981;-66
2021/03/25 14:32:44;;;;;;;;;;;14.80;99.90;;;;;;5092169;28;19924;-65
2021/03/25 14:35:10;;;;;;;;;;;14.70;99.90;;;;;;5092593;28;20327;-65
2021/03/25 14:37:36;;;;;;;;;;;14.50;99.90;;;;;;5092337;28;20007;-66